sensor_id;sensor_type;location;lat;lon;timestamp;P1;durP1;ratioP1;P2;durP2;ratioP2
10412;SDS011;5252;42.602;23.386;2022-09-02T00:01:42;22.15;;;19.95;;
10412;SDS011;5252;42.602;23.386;2022-09-02T00:04:10;21.77;;;19.45;;
10412;SDS011;5252;42.602;23.386;2022-09-02T00:06:38;19.30;;;17.58;;
10412;SDS011;5252;42.602;23.386;2022-09-02T00:09:05;19.70;;;17.92;;
10412;SDS011;5252;42.602;23.386;2022-09-02T00:11:33;21.00;;;18.95;;
10412;SDS011;5252;42.602;23.386;2022-09-02T00:14:00;19.77;;;17.52;;
10412;SDS011;5252;42.602;23.386;2022-09-02T00:16:28;19.65;;;17.77;;
10412;SDS011;5252;42.602;23.386;2022-09-02T00:18:57;20.83;;;18.70;;
10412;SDS011;5252;42.602;23.386;2022-09-02T00:21:24;20.67;;;18.80;;
10412;SDS011;5252;42.602;23.386;2022-09-02T00:23:51;21.10;;;19.27;;
10412;SDS011;5252;42.602;23.386;2022-09-02T00:26:18;20.75;;;18.90;;
10412;SDS011;5252;42.602;23.386;2022-09-02T00:28:45;20.88;;;18.77;;
10412;SDS011;5252;42.602;23.386;2022-09-02T00:31:12;20.23;;;18.30;;
10412;SDS011;5252;42.602;23.386;2022-09-02T00:33:38;19.65;;;17.73;;
10412;SDS011;5252;42.602;23.386;2022-09-02T00:36:07;22.38;;;19.95;;
10412;SDS011;5252;42.602;23.386;2022-09-02T00:38:34;21.73;;;19.63;;
10412;SDS011;5252;42.602;23.386;2022-09-02T00:41:02;21.42;;;19.38;;
10412;SDS011;5252;42.602;23.386;2022-09-02T00:43:38;21.80;;;19.65;;
10412;SDS011;5252;42.602;23.386;2022-09-02T00:46:05;22.83;;;20.60;;
10412;SDS011;5252;42.602;23.386;2022-09-02T00:48:31;23.02;;;20.95;;
10412;SDS011;5252;42.602;23.386;2022-09-02T00:50:59;23.00;;;20.63;;
10412;SDS011;5252;42.602;23.386;2022-09-02T00:53:28;23.98;;;21.67;;
10412;SDS011;5252;42.602;23.386;2022-09-02T00:55:55;23.25;;;21.05;;
10412;SDS011;5252;42.602;23.386;2022-09-02T00:58:23;25.40;;;22.77;;
10412;SDS011;5252;42.602;23.386;2022-09-02T01:00:51;25.52;;;23.02;;
10412;SDS011;5252;42.602;23.386;2022-09-02T01:03:20;25.60;;;23.15;;
10412;SDS011;5252;42.602;23.386;2022-09-02T01:05:48;25.58;;;22.85;;
10412;SDS011;5252;42.602;23.386;2022-09-02T01:08:15;24.08;;;21.90;;
10412;SDS011;5252;42.602;23.386;2022-09-02T01:10:45;25.73;;;23.20;;
10412;SDS011;5252;42.602;23.386;2022-09-02T01:13:13;26.27;;;23.58;;
10412;SDS011;5252;42.602;23.386;2022-09-02T01:15:40;24.63;;;22.17;;
10412;SDS011;5252;42.602;23.386;2022-09-02T01:18:09;25.63;;;23.17;;
10412;SDS011;5252;42.602;23.386;2022-09-02T01:20:38;25.98;;;23.25;;
10412;SDS011;5252;42.602;23.386;2022-09-02T01:23:06;26.25;;;23.63;;
10412;SDS011;5252;42.602;23.386;2022-09-02T01:25:32;24.75;;;22.45;;
10412;SDS011;5252;42.602;23.386;2022-09-02T01:28:00;24.23;;;22.00;;
10412;SDS011;5252;42.602;23.386;2022-09-02T01:30:26;23.90;;;21.50;;
10412;SDS011;5252;42.602;23.386;2022-09-02T01:32:53;23.70;;;21.33;;
10412;SDS011;5252;42.602;23.386;2022-09-02T01:35:19;21.60;;;19.67;;
10412;SDS011;5252;42.602;23.386;2022-09-02T01:37:46;21.48;;;19.55;;
10412;SDS011;5252;42.602;23.386;2022-09-02T01:40:15;20.40;;;18.30;;
10412;SDS011;5252;42.602;23.386;2022-09-02T01:42:44;20.23;;;18.30;;
10412;SDS011;5252;42.602;23.386;2022-09-02T01:45:11;20.58;;;18.60;;
10412;SDS011;5252;42.602;23.386;2022-09-02T01:47:38;20.30;;;18.15;;
10412;SDS011;5252;42.602;23.386;2022-09-02T01:50:05;21.27;;;19.05;;
10412;SDS011;5252;42.602;23.386;2022-09-02T01:52:31;21.20;;;18.48;;
10412;SDS011;5252;42.602;23.386;2022-09-02T01:54:58;20.67;;;18.73;;
10412;SDS011;5252;42.602;23.386;2022-09-02T01:57:26;20.00;;;18.17;;
10412;SDS011;5252;42.602;23.386;2022-09-02T01:59:53;21.55;;;19.45;;
10412;SDS011;5252;42.602;23.386;2022-09-02T02:02:20;21.73;;;19.73;;
10412;SDS011;5252;42.602;23.386;2022-09-02T02:04:47;21.83;;;19.73;;
10412;SDS011;5252;42.602;23.386;2022-09-02T02:07:14;21.50;;;19.23;;
10412;SDS011;5252;42.602;23.386;2022-09-02T02:09:41;20.35;;;18.60;;
10412;SDS011;5252;42.602;23.386;2022-09-02T02:12:08;22.30;;;20.08;;
10412;SDS011;5252;42.602;23.386;2022-09-02T02:14:36;20.85;;;18.75;;
10412;SDS011;5252;42.602;23.386;2022-09-02T02:17:03;21.48;;;19.27;;
10412;SDS011;5252;42.602;23.386;2022-09-02T02:19:29;21.58;;;19.48;;
10412;SDS011;5252;42.602;23.386;2022-09-02T02:21:56;22.75;;;20.55;;
10412;SDS011;5252;42.602;23.386;2022-09-02T02:24:22;21.90;;;19.70;;
10412;SDS011;5252;42.602;23.386;2022-09-02T02:26:49;20.40;;;18.65;;
10412;SDS011;5252;42.602;23.386;2022-09-02T02:29:15;20.17;;;18.25;;
10412;SDS011;5252;42.602;23.386;2022-09-02T02:31:43;20.63;;;18.63;;
10412;SDS011;5252;42.602;23.386;2022-09-02T02:34:10;21.60;;;19.38;;
10412;SDS011;5252;42.602;23.386;2022-09-02T02:36:36;20.67;;;18.60;;
10412;SDS011;5252;42.602;23.386;2022-09-02T02:39:03;20.77;;;18.73;;
10412;SDS011;5252;42.602;23.386;2022-09-02T02:41:30;21.33;;;19.20;;
10412;SDS011;5252;42.602;23.386;2022-09-02T02:43:57;20.35;;;18.45;;
10412;SDS011;5252;42.602;23.386;2022-09-02T02:46:23;20.52;;;18.52;;
10412;SDS011;5252;42.602;23.386;2022-09-02T02:48:51;21.15;;;19.05;;
10412;SDS011;5252;42.602;23.386;2022-09-02T02:51:18;21.35;;;19.35;;
10412;SDS011;5252;42.602;23.386;2022-09-02T02:53:44;21.90;;;19.60;;
10412;SDS011;5252;42.602;23.386;2022-09-02T02:56:11;22.02;;;19.73;;
10412;SDS011;5252;42.602;23.386;2022-09-02T02:58:38;22.38;;;20.10;;
10412;SDS011;5252;42.602;23.386;2022-09-02T03:01:05;22.30;;;19.98;;
10412;SDS011;5252;42.602;23.386;2022-09-02T03:03:31;20.52;;;18.45;;
10412;SDS011;5252;42.602;23.386;2022-09-02T03:05:59;21.33;;;19.08;;
10412;SDS011;5252;42.602;23.386;2022-09-02T03:08:26;22.30;;;20.00;;
10412;SDS011;5252;42.602;23.386;2022-09-02T03:10:53;20.98;;;18.90;;
10412;SDS011;5252;42.602;23.386;2022-09-02T03:13:20;19.98;;;18.08;;
10412;SDS011;5252;42.602;23.386;2022-09-02T03:15:47;17.67;;;16.02;;
10412;SDS011;5252;42.602;23.386;2022-09-02T03:18:13;18.67;;;16.98;;
10412;SDS011;5252;42.602;23.386;2022-09-02T03:20:40;18.88;;;17.08;;
10412;SDS011;5252;42.602;23.386;2022-09-02T03:23:08;16.35;;;14.68;;
10412;SDS011;5252;42.602;23.386;2022-09-02T03:25:36;16.65;;;14.95;;
10412;SDS011;5252;42.602;23.386;2022-09-02T03:28:03;14.63;;;13.32;;
10412;SDS011;5252;42.602;23.386;2022-09-02T03:30:30;16.00;;;14.43;;
10412;SDS011;5252;42.602;23.386;2022-09-02T03:32:57;16.33;;;14.73;;
10412;SDS011;5252;42.602;23.386;2022-09-02T03:35:24;15.68;;;14.18;;
10412;SDS011;5252;42.602;23.386;2022-09-02T03:37:51;16.75;;;14.95;;
10412;SDS011;5252;42.602;23.386;2022-09-02T03:40:20;16.65;;;14.90;;
10412;SDS011;5252;42.602;23.386;2022-09-02T03:42:47;17.35;;;15.55;;
10412;SDS011;5252;42.602;23.386;2022-09-02T03:45:14;15.18;;;13.77;;
10412;SDS011;5252;42.602;23.386;2022-09-02T03:47:40;15.55;;;14.05;;
10412;SDS011;5252;42.602;23.386;2022-09-02T03:50:14;12.90;;;11.75;;
10412;SDS011;5252;42.602;23.386;2022-09-02T03:52:41;14.10;;;12.80;;
10412;SDS011;5252;42.602;23.386;2022-09-02T03:55:08;13.25;;;11.88;;
10412;SDS011;5252;42.602;23.386;2022-09-02T03:57:36;13.55;;;12.35;;
10412;SDS011;5252;42.602;23.386;2022-09-02T04:00:04;13.77;;;12.48;;
10412;SDS011;5252;42.602;23.386;2022-09-02T04:02:31;13.45;;;12.23;;
10412;SDS011;5252;42.602;23.386;2022-09-02T04:04:58;12.75;;;11.55;;
10412;SDS011;5252;42.602;23.386;2022-09-02T04:07:24;13.00;;;11.75;;
10412;SDS011;5252;42.602;23.386;2022-09-02T04:09:51;13.45;;;12.07;;
10412;SDS011;5252;42.602;23.386;2022-09-02T04:12:20;12.95;;;11.63;;
10412;SDS011;5252;42.602;23.386;2022-09-02T04:14:48;13.45;;;12.15;;
10412;SDS011;5252;42.602;23.386;2022-09-02T04:17:14;13.40;;;12.00;;
10412;SDS011;5252;42.602;23.386;2022-09-02T04:19:41;13.20;;;11.93;;
10412;SDS011;5252;42.602;23.386;2022-09-02T04:22:07;12.55;;;11.40;;
10412;SDS011;5252;42.602;23.386;2022-09-02T04:24:34;12.30;;;11.10;;
10412;SDS011;5252;42.602;23.386;2022-09-02T04:27:01;12.00;;;10.90;;
10412;SDS011;5252;42.602;23.386;2022-09-02T04:29:27;12.48;;;11.35;;
10412;SDS011;5252;42.602;23.386;2022-09-02T04:31:57;11.75;;;10.75;;
10412;SDS011;5252;42.602;23.386;2022-09-02T04:34:23;11.68;;;10.68;;
10412;SDS011;5252;42.602;23.386;2022-09-02T04:36:50;12.35;;;11.15;;
10412;SDS011;5252;42.602;23.386;2022-09-02T04:39:17;13.73;;;12.40;;
10412;SDS011;5252;42.602;23.386;2022-09-02T04:41:43;11.98;;;10.88;;
10412;SDS011;5252;42.602;23.386;2022-09-02T04:44:10;12.60;;;11.30;;
10412;SDS011;5252;42.602;23.386;2022-09-02T04:46:36;12.30;;;11.13;;
10412;SDS011;5252;42.602;23.386;2022-09-02T04:49:04;12.55;;;11.43;;
10412;SDS011;5252;42.602;23.386;2022-09-02T04:51:31;13.23;;;12.02;;
10412;SDS011;5252;42.602;23.386;2022-09-02T04:53:58;13.55;;;12.35;;
10412;SDS011;5252;42.602;23.386;2022-09-02T04:56:26;12.57;;;11.38;;
10412;SDS011;5252;42.602;23.386;2022-09-02T04:58:53;12.15;;;10.95;;
10412;SDS011;5252;42.602;23.386;2022-09-02T05:01:21;13.35;;;12.02;;
10412;SDS011;5252;42.602;23.386;2022-09-02T05:03:47;13.32;;;12.02;;
10412;SDS011;5252;42.602;23.386;2022-09-02T05:06:18;13.02;;;11.57;;
10412;SDS011;5252;42.602;23.386;2022-09-02T05:08:45;12.45;;;11.25;;
10412;SDS011;5252;42.602;23.386;2022-09-02T05:11:13;12.40;;;11.27;;
10412;SDS011;5252;42.602;23.386;2022-09-02T05:13:41;12.63;;;11.45;;
10412;SDS011;5252;42.602;23.386;2022-09-02T05:16:08;12.80;;;11.43;;
10412;SDS011;5252;42.602;23.386;2022-09-02T05:18:34;11.68;;;10.50;;
10412;SDS011;5252;42.602;23.386;2022-09-02T05:21:03;11.73;;;10.73;;
10412;SDS011;5252;42.602;23.386;2022-09-02T05:23:31;11.10;;;10.10;;
10412;SDS011;5252;42.602;23.386;2022-09-02T05:25:58;10.77;;;9.80;;
10412;SDS011;5252;42.602;23.386;2022-09-02T05:28:27;11.57;;;9.88;;
10412;SDS011;5252;42.602;23.386;2022-09-02T05:30:54;10.70;;;9.70;;
10412;SDS011;5252;42.602;23.386;2022-09-02T05:33:20;10.48;;;9.57;;
10412;SDS011;5252;42.602;23.386;2022-09-02T05:35:47;10.45;;;9.55;;
10412;SDS011;5252;42.602;23.386;2022-09-02T05:38:17;10.77;;;9.77;;
10412;SDS011;5252;42.602;23.386;2022-09-02T05:40:45;10.80;;;9.88;;
10412;SDS011;5252;42.602;23.386;2022-09-02T05:43:12;9.80;;;8.85;;
10412;SDS011;5252;42.602;23.386;2022-09-02T05:45:38;9.20;;;8.43;;
10412;SDS011;5252;42.602;23.386;2022-09-02T05:48:05;9.30;;;8.40;;
10412;SDS011;5252;42.602;23.386;2022-09-02T05:50:52;8.95;;;8.15;;
10412;SDS011;5252;42.602;23.386;2022-09-02T05:53:19;9.50;;;8.60;;
10412;SDS011;5252;42.602;23.386;2022-09-02T05:55:46;8.55;;;7.85;;
10412;SDS011;5252;42.602;23.386;2022-09-02T05:58:14;8.38;;;7.57;;
10412;SDS011;5252;42.602;23.386;2022-09-02T06:00:40;7.28;;;6.63;;
10412;SDS011;5252;42.602;23.386;2022-09-02T06:03:07;6.63;;;6.03;;
10412;SDS011;5252;42.602;23.386;2022-09-02T06:05:34;7.22;;;6.43;;
10412;SDS011;5252;42.602;23.386;2022-09-02T06:08:02;6.25;;;5.75;;
10412;SDS011;5252;42.602;23.386;2022-09-02T06:10:29;6.07;;;5.57;;
10412;SDS011;5252;42.602;23.386;2022-09-02T06:12:57;6.85;;;6.25;;
10412;SDS011;5252;42.602;23.386;2022-09-02T06:15:23;19.00;;;14.25;;
10412;SDS011;5252;42.602;23.386;2022-09-02T06:17:51;66.75;;;40.85;;
10412;SDS011;5252;42.602;23.386;2022-09-02T06:20:18;94.47;;;53.20;;
10412;SDS011;5252;42.602;23.386;2022-09-02T06:22:44;79.25;;;46.80;;
10412;SDS011;5252;42.602;23.386;2022-09-02T06:25:12;65.65;;;38.58;;
10412;SDS011;5252;42.602;23.386;2022-09-02T06:27:38;54.10;;;31.75;;
10412;SDS011;5252;42.602;23.386;2022-09-02T06:30:07;31.25;;;20.73;;
10412;SDS011;5252;42.602;23.386;2022-09-02T06:32:34;23.05;;;17.02;;
10412;SDS011;5252;42.602;23.386;2022-09-02T06:35:00;15.60;;;12.20;;
10412;SDS011;5252;42.602;23.386;2022-09-02T06:37:26;10.82;;;9.43;;
10412;SDS011;5252;42.602;23.386;2022-09-02T06:39:53;10.00;;;8.32;;
10412;SDS011;5252;42.602;23.386;2022-09-02T06:42:19;10.20;;;9.07;;
10412;SDS011;5252;42.602;23.386;2022-09-02T06:44:46;8.65;;;7.85;;
10412;SDS011;5252;42.602;23.386;2022-09-02T06:47:14;8.82;;;7.95;;
10412;SDS011;5252;42.602;23.386;2022-09-02T06:49:40;8.52;;;7.70;;
10412;SDS011;5252;42.602;23.386;2022-09-02T06:52:07;8.95;;;7.75;;
10412;SDS011;5252;42.602;23.386;2022-09-02T06:54:33;8.95;;;8.07;;
10412;SDS011;5252;42.602;23.386;2022-09-02T06:57:00;8.40;;;7.60;;
10412;SDS011;5252;42.602;23.386;2022-09-02T06:59:26;8.35;;;7.47;;
10412;SDS011;5252;42.602;23.386;2022-09-02T07:01:53;8.68;;;7.88;;
10412;SDS011;5252;42.602;23.386;2022-09-02T07:04:21;8.48;;;7.68;;
10412;SDS011;5252;42.602;23.386;2022-09-02T07:07:07;7.80;;;7.10;;
10412;SDS011;5252;42.602;23.386;2022-09-02T07:09:36;7.95;;;7.25;;
10412;SDS011;5252;42.602;23.386;2022-09-02T07:12:02;8.60;;;7.72;;
10412;SDS011;5252;42.602;23.386;2022-09-02T07:14:29;9.07;;;8.13;;
10412;SDS011;5252;42.602;23.386;2022-09-02T07:16:56;8.10;;;7.22;;
10412;SDS011;5252;42.602;23.386;2022-09-02T07:19:25;9.18;;;8.27;;
10412;SDS011;5252;42.602;23.386;2022-09-02T07:21:52;7.68;;;6.93;;
10412;SDS011;5252;42.602;23.386;2022-09-02T07:24:18;8.63;;;7.80;;
10412;SDS011;5252;42.602;23.386;2022-09-02T07:26:45;8.00;;;7.15;;
10412;SDS011;5252;42.602;23.386;2022-09-02T07:29:11;7.65;;;6.95;;
10412;SDS011;5252;42.602;23.386;2022-09-02T07:31:39;8.15;;;7.45;;
10412;SDS011;5252;42.602;23.386;2022-09-02T07:34:05;8.27;;;7.50;;
10412;SDS011;5252;42.602;23.386;2022-09-02T07:36:35;7.20;;;6.47;;
10412;SDS011;5252;42.602;23.386;2022-09-02T07:39:02;8.45;;;7.63;;
10412;SDS011;5252;42.602;23.386;2022-09-02T07:41:28;7.20;;;6.50;;
10412;SDS011;5252;42.602;23.386;2022-09-02T07:43:55;7.72;;;7.03;;
10412;SDS011;5252;42.602;23.386;2022-09-02T07:46:21;7.45;;;6.85;;
10412;SDS011;5252;42.602;23.386;2022-09-02T07:48:48;7.40;;;6.80;;
10412;SDS011;5252;42.602;23.386;2022-09-02T07:51:15;7.53;;;6.82;;
10412;SDS011;5252;42.602;23.386;2022-09-02T07:53:43;5.38;;;4.80;;
10412;SDS011;5252;42.602;23.386;2022-09-02T07:56:10;5.38;;;4.88;;
10412;SDS011;5252;42.602;23.386;2022-09-02T07:58:37;6.00;;;5.47;;
10412;SDS011;5252;42.602;23.386;2022-09-02T08:01:04;4.55;;;4.15;;
10412;SDS011;5252;42.602;23.386;2022-09-02T08:03:31;4.75;;;4.35;;
10412;SDS011;5252;42.602;23.386;2022-09-02T08:05:58;4.82;;;4.40;;
10412;SDS011;5252;42.602;23.386;2022-09-02T08:08:25;5.60;;;5.10;;
10412;SDS011;5252;42.602;23.386;2022-09-02T08:10:53;5.75;;;5.25;;
10412;SDS011;5252;42.602;23.386;2022-09-02T08:13:20;6.03;;;5.05;;
10412;SDS011;5252;42.602;23.386;2022-09-02T08:15:48;5.57;;;5.07;;
10412;SDS011;5252;42.602;23.386;2022-09-02T08:18:15;5.80;;;5.30;;
10412;SDS011;5252;42.602;23.386;2022-09-02T08:20:41;6.22;;;5.13;;
10412;SDS011;5252;42.602;23.386;2022-09-02T08:23:08;5.65;;;5.15;;
10412;SDS011;5252;42.602;23.386;2022-09-02T08:25:35;5.55;;;4.82;;
10412;SDS011;5252;42.602;23.386;2022-09-02T08:28:04;6.30;;;5.70;;
10412;SDS011;5252;42.602;23.386;2022-09-02T08:30:30;6.10;;;5.55;;
10412;SDS011;5252;42.602;23.386;2022-09-02T08:32:57;6.68;;;6.07;;
10412;SDS011;5252;42.602;23.386;2022-09-02T08:35:23;6.63;;;6.03;;
10412;SDS011;5252;42.602;23.386;2022-09-02T08:37:50;6.88;;;6.20;;
10412;SDS011;5252;42.602;23.386;2022-09-02T08:40:18;7.28;;;6.57;;
10412;SDS011;5252;42.602;23.386;2022-09-02T08:42:45;7.22;;;6.53;;
10412;SDS011;5252;42.602;23.386;2022-09-02T08:45:15;7.30;;;6.60;;
10412;SDS011;5252;42.602;23.386;2022-09-02T08:47:45;7.25;;;6.38;;
10412;SDS011;5252;42.602;23.386;2022-09-02T08:50:13;7.55;;;6.47;;
10412;SDS011;5252;42.602;23.386;2022-09-02T08:52:41;7.13;;;6.35;;
10412;SDS011;5252;42.602;23.386;2022-09-02T08:55:09;7.35;;;6.65;;
10412;SDS011;5252;42.602;23.386;2022-09-02T08:57:38;6.65;;;6.05;;
10412;SDS011;5252;42.602;23.386;2022-09-02T09:00:05;7.18;;;6.00;;
10412;SDS011;5252;42.602;23.386;2022-09-02T09:02:35;7.03;;;6.32;;
10412;SDS011;5252;42.602;23.386;2022-09-02T09:07:53;6.82;;;6.22;;
10412;SDS011;5252;42.602;23.386;2022-09-02T09:10:23;6.63;;;6.03;;
10412;SDS011;5252;42.602;23.386;2022-09-02T09:12:56;8.60;;;6.60;;
10412;SDS011;5252;42.602;23.386;2022-09-02T09:15:28;7.35;;;6.72;;
10412;SDS011;5252;42.602;23.386;2022-09-02T09:17:59;6.88;;;6.28;;
10412;SDS011;5252;42.602;23.386;2022-09-02T09:20:29;6.07;;;5.47;;
10412;SDS011;5252;42.602;23.386;2022-09-02T09:22:56;5.88;;;5.35;;
10412;SDS011;5252;42.602;23.386;2022-09-02T09:25:24;6.35;;;5.85;;
10412;SDS011;5252;42.602;23.386;2022-09-02T09:27:54;6.63;;;5.90;;
10412;SDS011;5252;42.602;23.386;2022-09-02T09:30:20;6.80;;;6.10;;
10412;SDS011;5252;42.602;23.386;2022-09-02T09:32:48;6.45;;;5.43;;
10412;SDS011;5252;42.602;23.386;2022-09-02T09:35:17;7.05;;;6.35;;
10412;SDS011;5252;42.602;23.386;2022-09-02T09:37:44;7.15;;;5.88;;
10412;SDS011;5252;42.602;23.386;2022-09-02T09:40:22;7.47;;;6.70;;
10412;SDS011;5252;42.602;23.386;2022-09-02T09:42:51;8.65;;;6.75;;
10412;SDS011;5252;42.602;23.386;2022-09-02T09:45:20;6.72;;;6.03;;
10412;SDS011;5252;42.602;23.386;2022-09-02T09:50:30;7.97;;;7.18;;
10412;SDS011;5252;42.602;23.386;2022-09-02T09:53:05;7.25;;;6.55;;
10412;SDS011;5252;42.602;23.386;2022-09-02T09:55:48;6.15;;;5.55;;
10412;SDS011;5252;42.602;23.386;2022-09-02T09:58:15;8.05;;;7.25;;
10412;SDS011;5252;42.602;23.386;2022-09-02T10:00:42;6.57;;;5.97;;
10412;SDS011;5252;42.602;23.386;2022-09-02T10:03:08;8.48;;;6.78;;
10412;SDS011;5252;42.602;23.386;2022-09-02T10:05:45;8.80;;;7.72;;
10412;SDS011;5252;42.602;23.386;2022-09-02T10:08:18;9.77;;;8.50;;
10412;SDS011;5252;42.602;23.386;2022-09-02T10:10:53;8.77;;;7.93;;
10412;SDS011;5252;42.602;23.386;2022-09-02T10:13:21;9.85;;;8.95;;
10412;SDS011;5252;42.602;23.386;2022-09-02T10:15:53;9.30;;;8.30;;
10412;SDS011;5252;42.602;23.386;2022-09-02T10:18:24;9.25;;;8.45;;
10412;SDS011;5252;42.602;23.386;2022-09-02T10:20:58;9.73;;;8.75;;
10412;SDS011;5252;42.602;23.386;2022-09-02T10:23:28;9.23;;;8.32;;
10412;SDS011;5252;42.602;23.386;2022-09-02T10:26:02;10.32;;;8.80;;
10412;SDS011;5252;42.602;23.386;2022-09-02T10:28:34;10.98;;;8.60;;
10412;SDS011;5252;42.602;23.386;2022-09-02T10:31:04;10.38;;;9.20;;
10412;SDS011;5252;42.602;23.386;2022-09-02T10:33:35;10.15;;;9.15;;
10412;SDS011;5252;42.602;23.386;2022-09-02T10:36:06;10.95;;;9.85;;
10412;SDS011;5252;42.602;23.386;2022-09-02T10:38:36;10.68;;;9.45;;
10412;SDS011;5252;42.602;23.386;2022-09-02T10:41:08;11.20;;;10.10;;
10412;SDS011;5252;42.602;23.386;2022-09-02T10:43:47;10.35;;;9.35;;
10412;SDS011;5252;42.602;23.386;2022-09-02T10:46:16;11.90;;;8.52;;
10412;SDS011;5252;42.602;23.386;2022-09-02T10:48:47;10.43;;;9.07;;
10412;SDS011;5252;42.602;23.386;2022-09-02T10:51:21;10.80;;;9.50;;
10412;SDS011;5252;42.602;23.386;2022-09-02T10:53:58;12.07;;;9.57;;
10412;SDS011;5252;42.602;23.386;2022-09-02T10:56:30;12.90;;;9.55;;
10412;SDS011;5252;42.602;23.386;2022-09-02T10:58:59;11.40;;;9.38;;
10412;SDS011;5252;42.602;23.386;2022-09-02T11:01:30;14.15;;;10.43;;
10412;SDS011;5252;42.602;23.386;2022-09-02T11:04:00;14.75;;;10.13;;
10412;SDS011;5252;42.602;23.386;2022-09-02T11:06:29;11.90;;;10.63;;
10412;SDS011;5252;42.602;23.386;2022-09-02T11:08:58;13.52;;;12.23;;
10412;SDS011;5252;42.602;23.386;2022-09-02T11:11:28;12.07;;;10.88;;
10412;SDS011;5252;42.602;23.386;2022-09-02T11:13:57;12.35;;;11.15;;
10412;SDS011;5252;42.602;23.386;2022-09-02T11:16:26;11.75;;;10.40;;
10412;SDS011;5252;42.602;23.386;2022-09-02T11:18:56;12.75;;;11.55;;
10412;SDS011;5252;42.602;23.386;2022-09-02T11:21:31;13.40;;;10.57;;
10412;SDS011;5252;42.602;23.386;2022-09-02T11:24:00;12.55;;;10.68;;
10412;SDS011;5252;42.602;23.386;2022-09-02T11:26:29;16.90;;;11.32;;
10412;SDS011;5252;42.602;23.386;2022-09-02T11:29:04;13.30;;;11.10;;
10412;SDS011;5252;42.602;23.386;2022-09-02T11:31:33;12.88;;;10.32;;
10412;SDS011;5252;42.602;23.386;2022-09-02T11:34:03;13.05;;;10.80;;
10412;SDS011;5252;42.602;23.386;2022-09-02T11:36:38;12.50;;;11.23;;
10412;SDS011;5252;42.602;23.386;2022-09-02T11:39:06;11.85;;;9.55;;
10412;SDS011;5252;42.602;23.386;2022-09-02T11:41:43;14.07;;;10.98;;
10412;SDS011;5252;42.602;23.386;2022-09-02T11:44:21;12.45;;;10.77;;
10412;SDS011;5252;42.602;23.386;2022-09-02T11:46:59;11.90;;;10.70;;
10412;SDS011;5252;42.602;23.386;2022-09-02T11:52:25;11.60;;;10.48;;
10412;SDS011;5252;42.602;23.386;2022-09-02T11:54:58;12.73;;;11.18;;
10412;SDS011;5252;42.602;23.386;2022-09-02T11:57:27;12.23;;;10.95;;
10412;SDS011;5252;42.602;23.386;2022-09-02T12:00:00;12.15;;;10.85;;
10412;SDS011;5252;42.602;23.386;2022-09-02T12:02:31;12.32;;;11.13;;
10412;SDS011;5252;42.602;23.386;2022-09-02T12:07:47;13.00;;;11.18;;
10412;SDS011;5252;42.602;23.386;2022-09-02T12:13:03;14.02;;;12.63;;
10412;SDS011;5252;42.602;23.386;2022-09-02T12:15:30;12.70;;;11.23;;
10412;SDS011;5252;42.602;23.386;2022-09-02T12:18:09;14.50;;;11.43;;
10412;SDS011;5252;42.602;23.386;2022-09-02T12:26:09;13.30;;;12.00;;
10412;SDS011;5252;42.602;23.386;2022-09-02T12:28:37;12.50;;;11.30;;
10412;SDS011;5252;42.602;23.386;2022-09-02T12:31:08;12.20;;;11.00;;
10412;SDS011;5252;42.602;23.386;2022-09-02T12:33:37;13.35;;;11.95;;
10412;SDS011;5252;42.602;23.386;2022-09-02T12:36:04;12.48;;;11.27;;
10412;SDS011;5252;42.602;23.386;2022-09-02T12:38:34;13.10;;;11.90;;
10412;SDS011;5252;42.602;23.386;2022-09-02T12:44:07;14.15;;;12.75;;
10412;SDS011;5252;42.602;23.386;2022-09-02T12:46:43;15.02;;;13.45;;
10412;SDS011;5252;42.602;23.386;2022-09-02T12:49:27;14.23;;;11.43;;
10412;SDS011;5252;42.602;23.386;2022-09-02T12:51:54;13.45;;;11.80;;
10412;SDS011;5252;42.602;23.386;2022-09-02T12:54:23;15.23;;;12.13;;
10412;SDS011;5252;42.602;23.386;2022-09-02T12:56:51;12.43;;;11.15;;
10412;SDS011;5252;42.602;23.386;2022-09-02T12:59:26;14.38;;;12.57;;
10412;SDS011;5252;42.602;23.386;2022-09-02T13:01:56;14.52;;;13.02;;
10412;SDS011;5252;42.602;23.386;2022-09-02T13:04:28;14.65;;;13.25;;
10412;SDS011;5252;42.602;23.386;2022-09-02T13:09:42;12.93;;;11.40;;
10412;SDS011;5252;42.602;23.386;2022-09-02T13:12:18;14.30;;;12.18;;
10412;SDS011;5252;42.602;23.386;2022-09-02T13:14:53;14.20;;;12.65;;
10412;SDS011;5252;42.602;23.386;2022-09-02T13:20:12;16.45;;;14.93;;
10412;SDS011;5252;42.602;23.386;2022-09-02T13:22:48;16.60;;;14.85;;
10412;SDS011;5252;42.602;23.386;2022-09-02T13:28:26;14.38;;;12.80;;
10412;SDS011;5252;42.602;23.386;2022-09-02T13:31:02;15.13;;;12.85;;
10412;SDS011;5252;42.602;23.386;2022-09-02T13:33:31;15.18;;;12.90;;
10412;SDS011;5252;42.602;23.386;2022-09-02T13:35:57;15.82;;;13.55;;
10412;SDS011;5252;42.602;23.386;2022-09-02T13:38:25;17.42;;;14.32;;
10412;SDS011;5252;42.602;23.386;2022-09-02T13:40:51;21.52;;;14.23;;
10412;SDS011;5252;42.602;23.386;2022-09-02T13:43:19;16.80;;;12.75;;
10412;SDS011;5252;42.602;23.386;2022-09-02T13:45:46;17.10;;;11.60;;
10412;SDS011;5252;42.602;23.386;2022-09-02T13:48:15;19.90;;;14.70;;
10412;SDS011;5252;42.602;23.386;2022-09-02T13:50:43;17.10;;;14.23;;
10412;SDS011;5252;42.602;23.386;2022-09-02T13:53:12;17.48;;;14.23;;
10412;SDS011;5252;42.602;23.386;2022-09-02T13:55:39;18.08;;;15.00;;
10412;SDS011;5252;42.602;23.386;2022-09-02T13:58:21;19.35;;;14.00;;
10412;SDS011;5252;42.602;23.386;2022-09-02T14:00:49;24.38;;;15.02;;
10412;SDS011;5252;42.602;23.386;2022-09-02T14:03:17;26.20;;;16.88;;
10412;SDS011;5252;42.602;23.386;2022-09-02T14:05:46;21.15;;;16.08;;
10412;SDS011;5252;42.602;23.386;2022-09-02T14:08:13;23.85;;;16.60;;
10412;SDS011;5252;42.602;23.386;2022-09-02T14:10:40;19.67;;;16.95;;
10412;SDS011;5252;42.602;23.386;2022-09-02T14:13:08;18.85;;;14.77;;
10412;SDS011;5252;42.602;23.386;2022-09-02T14:15:35;17.88;;;13.68;;
10412;SDS011;5252;42.602;23.386;2022-09-02T14:18:05;19.38;;;14.15;;
10412;SDS011;5252;42.602;23.386;2022-09-02T14:20:33;17.55;;;14.20;;
10412;SDS011;5252;42.602;23.386;2022-09-02T14:23:00;18.50;;;15.68;;
10412;SDS011;5252;42.602;23.386;2022-09-02T14:25:29;23.35;;;15.55;;
10412;SDS011;5252;42.602;23.386;2022-09-02T14:27:57;15.82;;;13.82;;
10412;SDS011;5252;42.602;23.386;2022-09-02T14:30:28;15.27;;;13.68;;
10412;SDS011;5252;42.602;23.386;2022-09-02T14:35:37;16.10;;;13.40;;
10412;SDS011;5252;42.602;23.386;2022-09-02T14:38:04;15.02;;;13.35;;
10412;SDS011;5252;42.602;23.386;2022-09-02T14:40:31;14.68;;;13.18;;
10412;SDS011;5252;42.602;23.386;2022-09-02T14:42:58;16.85;;;13.75;;
10412;SDS011;5252;42.602;23.386;2022-09-02T14:45:26;15.50;;;12.65;;
10412;SDS011;5252;42.602;23.386;2022-09-02T14:47:53;13.90;;;12.02;;
10412;SDS011;5252;42.602;23.386;2022-09-02T14:50:21;13.70;;;12.23;;
10412;SDS011;5252;42.602;23.386;2022-09-02T14:52:49;14.25;;;12.75;;
10412;SDS011;5252;42.602;23.386;2022-09-02T14:58:06;19.10;;;14.38;;
10412;SDS011;5252;42.602;23.386;2022-09-02T15:02:59;15.85;;;13.85;;
10412;SDS011;5252;42.602;23.386;2022-09-02T15:05:25;14.90;;;13.40;;
10412;SDS011;5252;42.602;23.386;2022-09-02T15:07:53;15.02;;;13.52;;
10412;SDS011;5252;42.602;23.386;2022-09-02T15:10:20;15.52;;;13.93;;
10412;SDS011;5252;42.602;23.386;2022-09-02T15:12:47;14.98;;;13.32;;
10412;SDS011;5252;42.602;23.386;2022-09-02T15:15:14;15.43;;;13.30;;
10412;SDS011;5252;42.602;23.386;2022-09-02T15:17:41;15.25;;;12.73;;